PDA5508 UKBB-UKOO
Flight info
| Callsign | PDA5508 |
|---|---|
| Flight time | 0h 45m |
| Altitude | 31000 |
| Route | BASOR M856 GOBLI L919 ODSAN |
| Aircraft | T154/M-SDGRWY/S |
Departure
| Time | 2026-05-07 21:17 |
|---|---|
| Airport | Boryspil International Airport (UKBB) |
Arrival
| Time | 2026-05-07 22:03 |
|---|---|
| Airport | Odesa International Airport (UKOO) |
| Time | Latitude | Longitude | Altitude | Speed | Heading |
|---|---|---|---|---|---|
| 2026-05-07 20:37 | 50.33563 | 30.89794 | 417 ft | 0 kts | 3° |
| 2026-05-07 21:08 | 50.33565 | 30.89794 | 418 ft | 0 kts | 2° |
| 2026-05-07 21:08 | 50.33579 | 30.89796 | 418 ft | 3 kts | 15° |
| 2026-05-07 21:08 | 50.33604 | 30.89833 | 417 ft | 6 kts | 82° |
| 2026-05-07 21:08 | 50.33604 | 30.89930 | 417 ft | 11 kts | 92° |
| 2026-05-07 21:09 | 50.33640 | 30.90025 | 416 ft | 12 kts | 15° |
| 2026-05-07 21:09 | 50.33717 | 30.90074 | 416 ft | 12 kts | 85° |
| 2026-05-07 21:09 | 50.33765 | 30.90151 | 416 ft | 12 kts | 12° |
| 2026-05-07 21:09 | 50.33863 | 30.90161 | 415 ft | 16 kts | 2° |
| 2026-05-07 21:10 | 50.33987 | 30.90170 | 414 ft | 19 kts | 2° |
| 2026-05-07 21:10 | 50.34139 | 30.90183 | 414 ft | 23 kts | 3° |
| 2026-05-07 21:10 | 50.34315 | 30.90196 | 413 ft | 27 kts | 2° |
| 2026-05-07 21:10 | 50.34503 | 30.90208 | 412 ft | 28 kts | 2° |
| 2026-05-07 21:11 | 50.34701 | 30.90219 | 411 ft | 29 kts | 2° |
| 2026-05-07 21:11 | 50.34915 | 30.90237 | 411 ft | 31 kts | 3° |
| 2026-05-07 21:11 | 50.35260 | 30.90263 | 409 ft | 19 kts | 3° |
| 2026-05-07 21:12 | 50.35407 | 30.90274 | 408 ft | 22 kts | 4° |
| 2026-05-07 21:12 | 50.35577 | 30.90288 | 407 ft | 26 kts | 2° |
| 2026-05-07 21:12 | 50.35765 | 30.90302 | 407 ft | 24 kts | 2° |
| 2026-05-07 21:12 | 50.35895 | 30.90311 | 406 ft | 16 kts | 3° |
| 2026-05-07 21:13 | 50.36002 | 30.90321 | 406 ft | 7 kts | 7° |
| 2026-05-07 21:13 | 50.36005 | 30.90321 | 406 ft | 0 kts | 9° |
| 2026-05-07 21:14 | 50.36007 | 30.90322 | 406 ft | 2 kts | 9° |
| 2026-05-07 21:15 | 50.36045 | 30.90353 | 406 ft | 10 kts | 39° |
| 2026-05-07 21:15 | 50.36088 | 30.90480 | 406 ft | 16 kts | 105° |
| 2026-05-07 21:15 | 50.36005 | 30.90641 | 405 ft | 22 kts | 154° |
| 2026-05-07 21:15 | 50.35910 | 30.90637 | 405 ft | 3 kts | 184° |
| 2026-05-07 21:16 | 50.35909 | 30.90637 | 405 ft | 0 kts | 184° |
| 2026-05-07 21:16 | 50.35875 | 30.90634 | 405 ft | 8 kts | 184° |
| 2026-05-07 21:16 | 50.35696 | 30.90620 | 406 ft | 58 kts | 180° |
| 2026-05-07 21:16 | 50.35025 | 30.90570 | 409 ft | 131 kts | 183° |
| 2026-05-07 21:17 | 50.33963 | 30.90493 | 764 ft | 157 kts | 184° |
| 2026-05-07 21:17 | 50.33010 | 30.90460 | 1614 ft | 143 kts | 188° |
| 2026-05-07 21:17 | 50.31890 | 30.90402 | 1805 ft | 171 kts | 186° |
| 2026-05-07 21:17 | 50.30605 | 30.90432 | 2115 ft | 198 kts | 183° |
| 2026-05-07 21:18 | 50.29177 | 30.90369 | 2615 ft | 214 kts | 190° |
| 2026-05-07 21:18 | 50.27706 | 30.90042 | 3385 ft | 216 kts | 192° |
| 2026-05-07 21:18 | 50.26225 | 30.89689 | 4184 ft | 219 kts | 191° |
| 2026-05-07 21:18 | 50.24732 | 30.89347 | 4949 ft | 221 kts | 192° |
| 2026-05-07 21:19 | 50.23208 | 30.88858 | 5536 ft | 231 kts | 194° |
| 2026-05-07 21:19 | 50.21596 | 30.88307 | 6170 ft | 239 kts | 193° |
| 2026-05-07 21:19 | 50.19970 | 30.87804 | 6809 ft | 246 kts | 192° |
| 2026-05-07 21:19 | 50.18249 | 30.87291 | 7376 ft | 254 kts | 192° |
| 2026-05-07 21:20 | 50.16509 | 30.86769 | 8015 ft | 259 kts | 192° |
| 2026-05-07 21:20 | 50.14715 | 30.86229 | 8655 ft | 264 kts | 192° |
| 2026-05-07 21:20 | 50.12922 | 30.85690 | 9271 ft | 268 kts | 192° |
| 2026-05-07 21:20 | 50.11073 | 30.85133 | 9900 ft | 271 kts | 192° |
| 2026-05-07 21:21 | 50.09224 | 30.84577 | 10543 ft | 274 kts | 191° |
| 2026-05-07 21:21 | 50.07321 | 30.84005 | 11035 ft | 282 kts | 191° |
| 2026-05-07 21:21 | 50.05356 | 30.83415 | 11463 ft | 291 kts | 191° |
| 2026-05-07 21:21 | 50.03338 | 30.82822 | 11768 ft | 304 kts | 191° |
| 2026-05-07 21:22 | 50.01177 | 30.82205 | 11751 ft | 324 kts | 191° |
| 2026-05-07 21:22 | 49.98909 | 30.81559 | 11816 ft | 338 kts | 191° |
| 2026-05-07 21:22 | 49.96582 | 30.80892 | 12212 ft | 339 kts | 191° |
| 2026-05-07 21:22 | 49.94280 | 30.80233 | 12595 ft | 341 kts | 191° |
| 2026-05-07 21:23 | 49.91906 | 30.79553 | 12995 ft | 342 kts | 191° |
| 2026-05-07 21:23 | 49.89576 | 30.78887 | 13379 ft | 344 kts | 191° |
| 2026-05-07 21:23 | 49.87188 | 30.78208 | 13646 ft | 349 kts | 190° |
| 2026-05-07 21:23 | 49.84788 | 30.77528 | 14075 ft | 348 kts | 190° |
| 2026-05-07 21:24 | 49.82416 | 30.76853 | 14394 ft | 351 kts | 190° |
| 2026-05-07 21:24 | 49.79992 | 30.76163 | 14788 ft | 351 kts | 190° |
| 2026-05-07 21:24 | 49.77605 | 30.75483 | 15128 ft | 353 kts | 191° |
| 2026-05-07 21:24 | 49.75177 | 30.74792 | 15503 ft | 353 kts | 190° |
| 2026-05-07 21:25 | 49.72761 | 30.74105 | 15797 ft | 357 kts | 190° |
| 2026-05-07 21:25 | 49.70335 | 30.73417 | 16160 ft | 357 kts | 190° |
| 2026-05-07 21:25 | 49.67862 | 30.72715 | 16512 ft | 358 kts | 190° |
| 2026-05-07 21:25 | 49.65438 | 30.72028 | 16818 ft | 360 kts | 190° |
| 2026-05-07 21:26 | 49.62963 | 30.71327 | 17093 ft | 363 kts | 190° |
| 2026-05-07 21:26 | 49.60480 | 30.70625 | 17437 ft | 363 kts | 190° |
| 2026-05-07 21:26 | 49.58009 | 30.69927 | 17729 ft | 365 kts | 191° |
| 2026-05-07 21:26 | 49.55506 | 30.69272 | 18029 ft | 366 kts | 186° |
| 2026-05-07 21:27 | 49.52968 | 30.69092 | 18337 ft | 367 kts | 180° |
| 2026-05-07 21:27 | 49.50381 | 30.69125 | 18545 ft | 371 kts | 180° |
| 2026-05-07 21:27 | 49.47805 | 30.69111 | 18841 ft | 372 kts | 181° |
| 2026-05-07 21:27 | 49.45193 | 30.69063 | 19092 ft | 374 kts | 181° |
| 2026-05-07 21:28 | 49.42587 | 30.69008 | 19324 ft | 377 kts | 181° |
| 2026-05-07 21:28 | 49.39958 | 30.68954 | 19576 ft | 379 kts | 181° |
| 2026-05-07 21:28 | 49.37313 | 30.68898 | 19816 ft | 381 kts | 181° |
| 2026-05-07 21:28 | 49.34663 | 30.68841 | 20034 ft | 384 kts | 181° |
| 2026-05-07 21:29 | 49.31973 | 30.68784 | 20317 ft | 384 kts | 181° |
| 2026-05-07 21:29 | 49.29321 | 30.68727 | 20562 ft | 386 kts | 181° |
| 2026-05-07 21:29 | 49.26616 | 30.68670 | 20786 ft | 388 kts | 181° |
| 2026-05-07 21:29 | 49.23932 | 30.68613 | 21069 ft | 388 kts | 181° |
| 2026-05-07 21:30 | 49.21224 | 30.68555 | 21290 ft | 390 kts | 181° |
| 2026-05-07 21:30 | 49.18492 | 30.68497 | 21505 ft | 392 kts | 180° |
| 2026-05-07 21:30 | 49.15784 | 30.68439 | 21726 ft | 394 kts | 181° |
| 2026-05-07 21:30 | 49.13032 | 30.68380 | 21975 ft | 394 kts | 181° |
| 2026-05-07 21:31 | 49.10287 | 30.68322 | 22143 ft | 397 kts | 181° |
| 2026-05-07 21:31 | 49.07495 | 30.68263 | 22318 ft | 401 kts | 180° |
| 2026-05-07 21:31 | 49.04707 | 30.68204 | 22502 ft | 403 kts | 181° |
| 2026-05-07 21:31 | 49.01889 | 30.68144 | 22690 ft | 405 kts | 181° |
| 2026-05-07 21:32 | 48.99067 | 30.68084 | 22940 ft | 405 kts | 181° |
| 2026-05-07 21:32 | 48.96231 | 30.68024 | 23166 ft | 406 kts | 181° |
| 2026-05-07 21:32 | 48.93402 | 30.67964 | 23392 ft | 407 kts | 181° |
| 2026-05-07 21:32 | 48.90586 | 30.67904 | 23616 ft | 407 kts | 181° |
| 2026-05-07 21:33 | 48.87743 | 30.67845 | 23680 ft | 412 kts | 181° |
| 2026-05-07 21:33 | 48.84855 | 30.67784 | 23854 ft | 413 kts | 181° |
| 2026-05-07 21:33 | 48.81976 | 30.67724 | 24085 ft | 413 kts | 181° |
| 2026-05-07 21:33 | 48.79098 | 30.67664 | 24219 ft | 415 kts | 181° |
| 2026-05-07 21:34 | 48.76206 | 30.67603 | 24284 ft | 419 kts | 181° |
| 2026-05-07 21:34 | 48.73271 | 30.67542 | 24285 ft | 424 kts | 181° |
| 2026-05-07 21:34 | 48.70287 | 30.67479 | 24283 ft | 428 kts | 181° |
| 2026-05-07 21:34 | 48.67329 | 30.67418 | 24278 ft | 428 kts | 181° |
| 2026-05-07 21:35 | 48.64345 | 30.67356 | 24276 ft | 428 kts | 181° |
| 2026-05-07 21:35 | 48.61360 | 30.67294 | 24277 ft | 427 kts | 181° |
| 2026-05-07 21:35 | 48.58399 | 30.67232 | 24273 ft | 427 kts | 181° |
| 2026-05-07 21:35 | 48.55451 | 30.67171 | 24272 ft | 427 kts | 181° |
| 2026-05-07 21:36 | 48.52455 | 30.67109 | 24273 ft | 426 kts | 181° |
| 2026-05-07 21:36 | 48.49500 | 30.67047 | 24275 ft | 427 kts | 181° |
| 2026-05-07 21:36 | 48.46510 | 30.66985 | 24272 ft | 427 kts | 181° |
| 2026-05-07 21:36 | 48.43563 | 30.66924 | 24271 ft | 427 kts | 181° |
| 2026-05-07 21:37 | 48.40575 | 30.66862 | 24273 ft | 427 kts | 181° |
| 2026-05-07 21:37 | 48.37620 | 30.66801 | 24272 ft | 427 kts | 181° |
| 2026-05-07 21:37 | 48.34640 | 30.66739 | 24274 ft | 428 kts | 181° |
| 2026-05-07 21:37 | 48.31672 | 30.66678 | 24271 ft | 427 kts | 181° |
| 2026-05-07 21:38 | 48.28677 | 30.66617 | 24267 ft | 427 kts | 181° |
| 2026-05-07 21:38 | 48.25735 | 30.66556 | 24272 ft | 427 kts | 181° |
| 2026-05-07 21:38 | 48.22766 | 30.66495 | 24284 ft | 427 kts | 181° |
| 2026-05-07 21:38 | 48.19794 | 30.66434 | 24286 ft | 427 kts | 181° |
| 2026-05-07 21:39 | 48.16806 | 30.66373 | 24283 ft | 427 kts | 181° |
| 2026-05-07 21:39 | 48.13809 | 30.66312 | 24280 ft | 427 kts | 181° |
| 2026-05-07 21:39 | 48.10824 | 30.66251 | 24276 ft | 427 kts | 181° |
| 2026-05-07 21:39 | 48.07866 | 30.66064 | 24301 ft | 427 kts | 187° |
| 2026-05-07 21:40 | 48.04940 | 30.65362 | 24286 ft | 428 kts | 191° |
| 2026-05-07 21:40 | 48.01982 | 30.64525 | 24285 ft | 428 kts | 191° |
| 2026-05-07 21:40 | 47.99058 | 30.63759 | 24288 ft | 428 kts | 190° |
| 2026-05-07 21:40 | 47.96100 | 30.63189 | 24301 ft | 428 kts | 185° |
| 2026-05-07 21:41 | 47.93148 | 30.62964 | 24290 ft | 428 kts | 182° |
| 2026-05-07 21:41 | 47.90135 | 30.62788 | 24290 ft | 428 kts | 182° |
| 2026-05-07 21:41 | 47.87159 | 30.62588 | 24234 ft | 429 kts | 183° |
| 2026-05-07 21:41 | 47.84148 | 30.62380 | 24246 ft | 430 kts | 183° |
| 2026-05-07 21:42 | 47.81213 | 30.62177 | 24238 ft | 415 kts | 183° |
| 2026-05-07 21:42 | 47.78360 | 30.61982 | 23280 ft | 410 kts | 182° |
| 2026-05-07 21:42 | 47.75516 | 30.61787 | 22356 ft | 402 kts | 182° |
| 2026-05-07 21:42 | 47.72753 | 30.61597 | 21379 ft | 397 kts | 182° |
| 2026-05-07 21:43 | 47.70043 | 30.61410 | 20358 ft | 392 kts | 182° |
| 2026-05-07 21:43 | 47.67345 | 30.61225 | 19353 ft | 386 kts | 182° |
| 2026-05-07 21:43 | 47.64699 | 30.61043 | 18332 ft | 381 kts | 182° |
| 2026-05-07 21:43 | 47.62093 | 30.60864 | 17333 ft | 375 kts | 182° |
| 2026-05-07 21:44 | 47.59505 | 30.60687 | 16311 ft | 369 kts | 182° |
| 2026-05-07 21:44 | 47.56976 | 30.60514 | 15297 ft | 364 kts | 182° |
| 2026-05-07 21:44 | 47.54478 | 30.60343 | 14260 ft | 359 kts | 181° |
| 2026-05-07 21:44 | 47.52027 | 30.60176 | 13232 ft | 354 kts | 181° |
| 2026-05-07 21:45 | 47.49606 | 30.60011 | 12232 ft | 348 kts | 182° |
| 2026-05-07 21:45 | 47.47207 | 30.59848 | 11212 ft | 342 kts | 182° |
| 2026-05-07 21:45 | 47.44880 | 30.59689 | 10197 ft | 336 kts | 182° |
| 2026-05-07 21:45 | 47.42570 | 30.59532 | 9192 ft | 330 kts | 182° |
| 2026-05-07 21:46 | 47.40312 | 30.59379 | 8208 ft | 323 kts | 182° |
| 2026-05-07 21:46 | 47.38231 | 30.59238 | 7384 ft | 312 kts | 182° |
| 2026-05-07 21:46 | 47.36089 | 30.59092 | 7159 ft | 307 kts | 182° |
| 2026-05-07 21:46 | 47.33951 | 30.58947 | 6978 ft | 308 kts | 183° |
| 2026-05-07 21:47 | 47.31807 | 30.58802 | 6826 ft | 308 kts | 183° |
| 2026-05-07 21:47 | 47.29715 | 30.58662 | 6652 ft | 297 kts | 183° |
| 2026-05-07 21:47 | 47.27641 | 30.58522 | 6430 ft | 290 kts | 183° |
| 2026-05-07 21:47 | 47.25661 | 30.58388 | 6178 ft | 285 kts | 183° |
| 2026-05-07 21:48 | 47.23698 | 30.58255 | 5905 ft | 282 kts | 183° |
| 2026-05-07 21:48 | 47.21738 | 30.58123 | 5623 ft | 280 kts | 183° |
| 2026-05-07 21:48 | 47.19787 | 30.57991 | 5337 ft | 277 kts | 183° |
| 2026-05-07 21:48 | 47.17903 | 30.57864 | 5030 ft | 267 kts | 183° |
| 2026-05-07 21:49 | 47.16040 | 30.57738 | 4671 ft | 261 kts | 183° |
| 2026-05-07 21:49 | 47.14256 | 30.57618 | 4296 ft | 257 kts | 183° |
| 2026-05-07 21:49 | 47.12495 | 30.57500 | 3911 ft | 253 kts | 183° |
| 2026-05-07 21:49 | 47.10733 | 30.57381 | 3520 ft | 250 kts | 183° |
| 2026-05-07 21:50 | 47.09034 | 30.57267 | 3349 ft | 238 kts | 183° |
| 2026-05-07 21:50 | 47.07421 | 30.57159 | 3239 ft | 230 kts | 184° |
| 2026-05-07 21:50 | 47.05806 | 30.57049 | 3094 ft | 232 kts | 184° |
| 2026-05-07 21:50 | 47.04187 | 30.56939 | 2976 ft | 231 kts | 184° |
| 2026-05-07 21:51 | 47.02564 | 30.56830 | 2861 ft | 231 kts | 184° |
| 2026-05-07 21:51 | 47.00975 | 30.56724 | 2749 ft | 230 kts | 184° |
| 2026-05-07 21:51 | 46.99380 | 30.56617 | 2755 ft | 225 kts | 184° |
| 2026-05-07 21:51 | 46.97796 | 30.56509 | 2952 ft | 229 kts | 184° |
| 2026-05-07 21:52 | 46.96198 | 30.56401 | 3171 ft | 231 kts | 184° |
| 2026-05-07 21:52 | 46.94585 | 30.56292 | 3397 ft | 233 kts | 184° |
| 2026-05-07 21:52 | 46.92947 | 30.56182 | 3583 ft | 236 kts | 183° |
| 2026-05-07 21:52 | 46.91310 | 30.56076 | 3583 ft | 231 kts | 183° |
| 2026-05-07 21:53 | 46.89718 | 30.55976 | 3439 ft | 231 kts | 183° |
| 2026-05-07 21:53 | 46.88089 | 30.55872 | 3212 ft | 234 kts | 183° |
| 2026-05-07 21:53 | 46.86443 | 30.55765 | 3054 ft | 233 kts | 183° |
| 2026-05-07 21:53 | 46.84853 | 30.55660 | 3048 ft | 227 kts | 183° |
| 2026-05-07 21:54 | 46.83262 | 30.55551 | 3043 ft | 226 kts | 184° |
| 2026-05-07 21:54 | 46.81699 | 30.55445 | 3043 ft | 225 kts | 184° |
| 2026-05-07 21:54 | 46.80135 | 30.55339 | 3047 ft | 225 kts | 183° |
| 2026-05-07 21:54 | 46.78554 | 30.55234 | 3048 ft | 224 kts | 183° |
| 2026-05-07 21:55 | 46.77003 | 30.55131 | 3046 ft | 224 kts | 184° |
| 2026-05-07 21:55 | 46.75449 | 30.55027 | 3048 ft | 223 kts | 184° |
| 2026-05-07 21:55 | 46.73906 | 30.54925 | 3052 ft | 223 kts | 184° |
| 2026-05-07 21:55 | 46.72365 | 30.54823 | 3053 ft | 222 kts | 183° |
| 2026-05-07 21:56 | 46.70826 | 30.55022 | 3079 ft | 221 kts | 167° |
| 2026-05-07 21:56 | 46.69359 | 30.55708 | 3082 ft | 222 kts | 162° |
| 2026-05-07 21:56 | 46.67945 | 30.56674 | 3031 ft | 224 kts | 160° |
| 2026-05-07 21:56 | 46.66455 | 30.57453 | 2782 ft | 233 kts | 165° |
| 2026-05-07 21:57 | 46.64891 | 30.58033 | 2710 ft | 233 kts | 170° |
| 2026-05-07 21:57 | 46.63294 | 30.58535 | 2609 ft | 235 kts | 168° |
| 2026-05-07 21:57 | 46.61710 | 30.59129 | 2531 ft | 229 kts | 166° |
| 2026-05-07 21:57 | 46.60233 | 30.59745 | 2328 ft | 212 kts | 166° |
| 2026-05-07 21:58 | 46.58852 | 30.60375 | 1986 ft | 203 kts | 161° |
| 2026-05-07 21:58 | 46.57564 | 30.60875 | 1814 ft | 187 kts | 172° |
| 2026-05-07 21:58 | 46.56260 | 30.60986 | 1282 ft | 192 kts | 181° |
| 2026-05-07 21:58 | 46.54971 | 30.60939 | 1063 ft | 172 kts | 182° |
| 2026-05-07 21:59 | 46.53960 | 30.61058 | 1118 ft | 124 kts | 166° |
| 2026-05-07 21:59 | 46.53097 | 30.61338 | 773 ft | 135 kts | 173° |
| 2026-05-07 21:59 | 46.52164 | 30.61559 | 711 ft | 136 kts | 153° |
| 2026-05-07 21:59 | 46.51557 | 30.62549 | 863 ft | 130 kts | 126° |
| 2026-05-07 22:00 | 46.51067 | 30.63683 | 862 ft | 133 kts | 131° |
| 2026-05-07 22:00 | 46.50290 | 30.64262 | 987 ft | 123 kts | 174° |
| 2026-05-07 22:00 | 46.49435 | 30.64427 | 1107 ft | 123 kts | 173° |
| 2026-05-07 22:00 | 46.48549 | 30.64706 | 1102 ft | 137 kts | 162° |
| 2026-05-07 22:01 | 46.47612 | 30.65191 | 1042 ft | 148 kts | 163° |
| 2026-05-07 22:01 | 46.46679 | 30.65621 | 832 ft | 136 kts | 166° |
| 2026-05-07 22:01 | 46.45786 | 30.65966 | 554 ft | 128 kts | 166° |
| 2026-05-07 22:01 | 46.44948 | 30.66335 | 419 ft | 129 kts | 162° |
| 2026-05-07 22:02 | 46.44085 | 30.66705 | 269 ft | 128 kts | 164° |
| 2026-05-07 22:02 | 46.43247 | 30.67061 | 179 ft | 115 kts | 164° |
| 2026-05-07 22:02 | 46.42607 | 30.67335 | 175 ft | 73 kts | 162° |
| 2026-05-07 22:02 | 46.42117 | 30.67545 | 172 ft | 65 kts | 164° |
| 2026-05-07 22:03 | 46.41781 | 30.67700 | 171 ft | 34 kts | 164° |
| 2026-05-07 22:03 | 46.41574 | 30.67786 | 171 ft | 27 kts | 164° |
| 2026-05-07 22:03 | 46.41451 | 30.67886 | 171 ft | 20 kts | 113° |
| 2026-05-07 22:03 | 46.41465 | 30.68090 | 170 ft | 20 kts | 74° |
| 2026-05-07 22:04 | 46.41497 | 30.68254 | 170 ft | 15 kts | 74° |
| 2026-05-07 22:04 | 46.41526 | 30.68400 | 170 ft | 13 kts | 73° |
| 2026-05-07 22:04 | 46.41557 | 30.68495 | 169 ft | 9 kts | 11° |
| 2026-05-07 22:04 | 46.41630 | 30.68479 | 170 ft | 11 kts | 344° |
| 2026-05-07 22:05 | 46.41717 | 30.68443 | 170 ft | 13 kts | 344° |
| 2026-05-07 22:05 | 46.41818 | 30.68402 | 170 ft | 16 kts | 343° |
| 2026-05-07 22:05 | 46.41931 | 30.68350 | 170 ft | 18 kts | 343° |
| 2026-05-07 22:05 | 46.42062 | 30.68293 | 171 ft | 20 kts | 344° |
| 2026-05-07 22:06 | 46.42205 | 30.68233 | 171 ft | 22 kts | 343° |
| 2026-05-07 22:06 | 46.42364 | 30.68164 | 172 ft | 24 kts | 345° |
| 2026-05-07 22:06 | 46.42533 | 30.68097 | 173 ft | 26 kts | 345° |
| 2026-05-07 22:06 | 46.42715 | 30.68019 | 174 ft | 28 kts | 343° |
| 2026-05-07 22:07 | 46.42900 | 30.67935 | 175 ft | 27 kts | 344° |
| 2026-05-07 22:07 | 46.43090 | 30.67855 | 176 ft | 29 kts | 343° |
| 2026-05-07 22:07 | 46.43293 | 30.67766 | 177 ft | 31 kts | 341° |
| 2026-05-07 22:07 | 46.43416 | 30.67718 | 177 ft | 7 kts | 356° |
| 2026-05-07 22:08 | 46.43450 | 30.67778 | 177 ft | 9 kts | 74° |
| 2026-05-07 22:08 | 46.43471 | 30.67883 | 177 ft | 12 kts | 74° |
| 2026-05-07 22:08 | 46.43503 | 30.68010 | 177 ft | 13 kts | 59° |
| 2026-05-07 22:08 | 46.43584 | 30.68027 | 177 ft | 13 kts | 344° |
| 2026-05-07 22:09 | 46.43646 | 30.67995 | 177 ft | 5 kts | 306° |
| 2026-05-07 22:09 | 46.43643 | 30.67942 | 177 ft | 3 kts | 255° |
| 2026-05-07 22:09 | 46.43640 | 30.67928 | 177 ft | 0 kts | 254° |
| 2026-05-07 22:09 | 46.43638 | 30.67918 | 177 ft | 2 kts | 254° |
| 2026-05-07 22:10 | 46.43646 | 30.67880 | 177 ft | 6 kts | 311° |
| 2026-05-07 22:10 | 46.43692 | 30.67851 | 178 ft | 8 kts | 18° |
| 2026-05-07 22:10 | 46.43713 | 30.67880 | 178 ft | 2 kts | 74° |
| 2026-05-07 22:10 | 46.43717 | 30.67896 | 178 ft | 0 kts | 73° |
| 2026-05-07 22:11 | 46.43717 | 30.67897 | 178 ft | 0 kts | 73° |
| 2026-05-07 22:11 | 46.43717 | 30.67896 | 178 ft | 0 kts | 73° |